createdAt,value
2023-04-15T00:01:55.034Z,5.32
2023-04-15T00:04:57.602Z,5.50
2023-04-15T00:08:01.498Z,4.88
2023-04-15T00:11:06.051Z,4.95
2023-04-15T00:14:08.651Z,4.70
2023-04-15T00:17:11.028Z,5.00
2023-04-15T00:20:13.605Z,4.43
2023-04-15T00:23:16.106Z,4.60
2023-04-15T00:26:20.023Z,4.65
2023-04-15T00:29:25.332Z,5.53
2023-04-15T00:32:28.148Z,5.15
2023-04-15T00:35:32.870Z,5.45
2023-04-15T00:38:36.765Z,4.75
2023-04-15T00:41:39.826Z,4.72
2023-04-15T00:44:42.854Z,4.57
2023-04-15T00:47:46.141Z,4.72
2023-04-15T00:50:48.615Z,4.57
2023-04-15T00:53:52.163Z,5.32
2023-04-15T00:56:54.901Z,4.57
2023-04-15T00:59:57.921Z,4.82
2023-04-15T01:03:00.774Z,4.65
2023-04-15T01:06:04.212Z,4.40
2023-04-15T01:12:13.061Z,4.25
2023-04-15T01:15:16.310Z,5.20
2023-04-15T01:18:19.497Z,5.45
2023-04-15T01:21:22.156Z,6.30
2023-04-15T01:24:27.245Z,5.82
2023-04-15T01:27:31.409Z,4.93
2023-04-15T01:30:37.128Z,5.63
2023-04-15T01:33:41.141Z,5.75
2023-04-15T01:36:44.102Z,6.07
2023-04-15T01:39:46.586Z,5.22
2023-04-15T01:42:49.377Z,5.82
2023-04-15T01:45:51.898Z,5.70
2023-04-15T01:48:54.673Z,5.45
2023-04-15T01:51:57.484Z,5.72
2023-04-15T01:55:00.006Z,5.35
2023-04-15T01:58:02.688Z,5.30
2023-04-15T02:01:05.243Z,5.10
2023-04-15T02:04:08.301Z,5.15
2023-04-15T02:07:11.592Z,5.32
2023-04-15T02:10:15.231Z,5.47
2023-04-15T02:13:18.057Z,4.90
2023-04-15T02:16:21.660Z,5.28
2023-04-15T02:19:24.675Z,5.13
2023-04-15T02:22:28.099Z,4.90
2023-04-15T02:25:30.996Z,4.80
2023-04-15T02:28:33.977Z,4.55
2023-04-15T02:31:38.242Z,5.07
2023-04-15T02:34:42.738Z,4.53
2023-04-15T02:37:46.490Z,4.70
2023-04-15T02:40:50.519Z,4.25
2023-04-15T02:43:53.714Z,4.80
2023-04-15T02:46:57.335Z,4.90
2023-04-15T02:50:01.865Z,4.47
2023-04-15T02:53:06.052Z,4.57
2023-04-15T02:56:08.912Z,4.20
2023-04-15T02:59:13.098Z,4.47
2023-04-15T03:02:16.276Z,5.18
2023-04-15T03:05:18.859Z,4.65
2023-04-15T03:08:25.818Z,4.53
2023-04-15T03:11:29.555Z,5.00
2023-04-15T03:14:32.958Z,4.25
2023-04-15T03:17:35.859Z,4.65
2023-04-15T03:23:41.673Z,4.03
2023-04-15T03:26:44.934Z,4.43
2023-04-15T03:29:51.948Z,4.45
2023-04-15T03:32:56.483Z,4.43
2023-04-15T03:42:07.718Z,4.82
2023-04-15T03:45:11.045Z,5.85
2023-04-15T03:48:17.871Z,4.70
2023-04-15T03:51:22.335Z,4.53
2023-04-15T03:54:25.841Z,4.75
2023-04-15T04:00:30.782Z,4.68
2023-04-15T04:03:33.837Z,4.68
2023-04-15T04:06:36.704Z,4.78
2023-04-15T04:09:41.749Z,4.72
2023-04-15T04:12:44.244Z,4.80
2023-04-15T04:15:46.809Z,4.85
2023-04-15T04:18:50.061Z,4.93
2023-04-15T04:21:56.733Z,5.03
2023-04-15T04:25:11.032Z,5.38
2023-04-15T04:28:17.095Z,4.10
2023-04-15T04:31:20.250Z,4.80
2023-04-15T04:34:23.428Z,4.82
2023-04-15T04:37:26.173Z,4.60
2023-04-15T04:40:29.053Z,5.38
2023-04-15T04:43:32.014Z,5.13
2023-04-15T04:46:34.580Z,5.43
2023-04-15T04:49:38.230Z,5.63
2023-04-15T04:52:42.031Z,5.15
2023-04-15T04:55:44.588Z,5.65
2023-04-15T04:58:48.119Z,5.40
2023-04-15T05:01:50.955Z,5.93
2023-04-15T05:04:54.892Z,5.80
2023-04-15T05:07:58.462Z,5.32
2023-04-15T05:11:01.992Z,5.70
2023-04-15T05:14:05.418Z,5.40
2023-04-15T05:17:09.129Z,5.28
2023-04-15T05:20:12.526Z,5.90
2023-04-15T05:23:15.499Z,5.75
2023-04-15T05:26:18.847Z,6.03
2023-04-15T05:29:22.340Z,6.35
2023-04-15T05:32:25.263Z,5.80
2023-04-15T05:35:28.020Z,5.80
2023-04-15T05:38:31.226Z,5.65
2023-04-15T05:41:34.791Z,6.45
2023-04-15T05:44:37.614Z,6.38
2023-04-15T05:47:41.124Z,6.78
2023-04-15T05:50:44.061Z,6.13
2023-04-15T05:53:46.838Z,6.25
2023-04-15T05:56:50.796Z,6.38
2023-04-15T05:59:53.755Z,5.70
2023-04-15T06:02:58.366Z,5.45
2023-04-15T06:06:02.772Z,6.05
2023-04-15T06:09:05.689Z,5.20
2023-04-15T06:12:12.472Z,5.07
2023-04-15T06:15:16.010Z,5.10
2023-04-15T06:18:18.550Z,4.88
2023-04-15T06:21:21.265Z,4.68
2023-04-15T06:24:23.912Z,4.82
2023-04-15T06:27:26.892Z,5.25
2023-04-15T06:30:30.211Z,5.15
2023-04-15T06:33:34.095Z,4.68
2023-04-15T06:36:36.849Z,4.53
2023-04-15T06:39:40.722Z,4.82
2023-04-15T06:42:44.400Z,4.32
2023-04-15T06:45:47.794Z,4.55
2023-04-15T06:51:54.546Z,4.00
2023-04-15T06:54:59.992Z,3.85
2023-04-15T06:58:03.183Z,4.03
2023-04-15T07:01:06.158Z,3.90
2023-04-15T07:04:08.950Z,3.55
2023-04-15T07:07:11.701Z,4.03
2023-04-15T07:10:15.981Z,3.47
2023-04-15T07:13:20.220Z,3.63
2023-04-15T07:16:23.258Z,3.60
2023-04-15T07:19:26.763Z,3.55
2023-04-15T07:22:31.872Z,3.35
2023-04-15T07:25:34.601Z,3.72
2023-04-15T07:28:37.604Z,3.80
2023-04-15T07:31:42.572Z,3.83
2023-04-15T07:34:45.232Z,3.75
2023-04-15T07:37:49.397Z,3.78
2023-04-15T07:40:52.663Z,3.45
2023-04-15T07:46:57.894Z,3.65
2023-04-15T07:50:01.176Z,3.75
2023-04-15T07:56:07.456Z,3.22
2023-04-15T07:59:10.869Z,2.55
2023-04-15T08:02:14.877Z,2.90
2023-04-15T08:05:17.462Z,3.60
2023-04-15T08:08:20.870Z,2.60
2023-04-15T08:11:28.062Z,2.70
2023-04-15T08:14:30.817Z,2.58
2023-04-15T08:17:35.928Z,3.40
2023-04-15T08:20:39.028Z,2.88
2023-04-15T08:23:41.624Z,2.90
2023-04-15T08:26:44.432Z,3.03
2023-04-15T08:29:47.224Z,2.60
2023-04-15T08:32:51.323Z,2.95
2023-04-15T08:35:54.242Z,2.45
2023-04-15T08:38:56.747Z,2.22
2023-04-15T08:42:03.606Z,2.45
2023-04-15T08:45:06.577Z,2.15
2023-04-15T08:48:09.682Z,2.35
2023-04-15T08:54:19.938Z,1.60
2023-04-15T08:57:28.073Z,1.92
2023-04-15T09:00:30.821Z,2.15
2023-04-15T09:03:33.805Z,1.92
2023-04-15T09:06:36.633Z,1.85
2023-04-15T09:09:40.317Z,1.60
2023-04-15T09:12:42.881Z,1.55
2023-04-15T09:15:45.798Z,1.95
2023-04-15T09:18:48.790Z,1.90
2023-04-15T09:21:59.813Z,2.47
2023-04-15T09:25:02.268Z,1.80
2023-04-15T09:28:04.804Z,1.73
2023-04-15T09:31:08.465Z,1.60
2023-04-15T09:34:12.112Z,1.58
2023-04-15T09:37:28.981Z,1.70
2023-04-15T09:40:41.964Z,1.40
2023-04-15T09:43:45.226Z,1.70
2023-04-15T09:46:47.956Z,1.50
2023-04-15T09:50:00.496Z,1.40
2023-04-15T09:53:04.373Z,1.65
2023-04-15T09:56:09.076Z,1.30
2023-04-15T09:59:11.566Z,1.38
2023-04-15T10:02:14.584Z,1.10
2023-04-15T10:08:21.924Z,1.75
2023-04-15T10:11:24.776Z,1.23
2023-04-15T10:14:27.396Z,1.10
2023-04-15T10:17:31.812Z,1.85
2023-04-15T10:20:34.382Z,2.72
2023-04-15T10:23:36.852Z,2.20
2023-04-15T10:26:39.352Z,3.03
2023-04-15T10:29:41.801Z,2.60
2023-04-15T10:32:44.774Z,3.15
2023-04-15T10:35:47.679Z,2.17
2023-04-15T10:38:50.200Z,2.50
2023-04-15T10:42:27.502Z,1.55
2023-04-15T10:45:34.794Z,1.50
2023-04-15T10:48:37.338Z,1.40
2023-04-15T10:51:42.276Z,1.60
2023-04-15T10:54:44.928Z,1.20
2023-04-15T10:57:52.684Z,1.10
2023-04-15T11:00:55.537Z,1.33
2023-04-15T11:03:58.167Z,1.30
2023-04-15T11:07:07.239Z,1.30
2023-04-15T11:10:31.869Z,1.30
2023-04-15T11:13:59.791Z,1.30
2023-04-15T11:17:11.151Z,1.40
2023-04-15T11:20:27.185Z,1.40
2023-04-15T11:23:40.815Z,1.63
2023-04-15T11:26:43.303Z,1.27
2023-04-15T11:29:45.690Z,1.30
2023-04-15T11:32:50.251Z,1.30
2023-04-15T11:35:54.349Z,0.95
2023-04-15T11:38:57.929Z,1.20
2023-04-15T11:42:00.580Z,1.30
2023-04-15T11:45:13.569Z,1.30
2023-04-15T11:48:16.483Z,1.52
2023-04-15T11:51:21.927Z,1.60
2023-04-15T11:54:30.896Z,1.25
2023-04-15T11:57:33.377Z,0.85
2023-04-15T12:00:35.960Z,1.17
2023-04-15T12:03:40.314Z,1.30
2023-04-15T12:06:43.145Z,1.30
2023-04-15T12:09:45.864Z,1.20
2023-04-15T12:12:52.741Z,1.30
2023-04-15T12:15:56.175Z,1.50
2023-04-15T12:19:01.080Z,1.88
2023-04-15T12:22:12.264Z,2.60
2023-04-15T12:25:14.944Z,3.00
2023-04-15T12:28:17.577Z,3.53
2023-04-15T12:31:20.549Z,3.55
2023-04-15T12:34:32.384Z,3.88
2023-04-15T12:37:34.777Z,3.60
2023-04-15T12:40:37.158Z,3.40
2023-04-15T12:43:40.747Z,3.80
2023-04-15T12:46:43.503Z,4.05
2023-04-15T12:49:47.209Z,3.38
2023-04-15T12:52:49.950Z,3.05
2023-04-15T12:55:52.728Z,2.90
2023-04-15T12:58:55.266Z,3.25
2023-04-15T13:01:58.605Z,2.75
2023-04-15T13:05:01.394Z,2.60
2023-04-15T13:08:05.352Z,2.53
2023-04-15T13:11:07.795Z,3.30
2023-04-15T13:14:11.944Z,3.58
2023-04-15T13:17:14.547Z,3.05
2023-04-15T13:20:17.584Z,3.00
2023-04-15T13:23:20.307Z,3.72
2023-04-15T13:26:23.978Z,3.72
2023-04-15T13:29:27.024Z,3.28
2023-04-15T13:32:29.466Z,2.95
2023-04-15T13:35:32.713Z,3.53
2023-04-15T13:38:35.837Z,3.20
2023-04-15T13:41:38.206Z,3.20
2023-04-15T13:44:40.808Z,3.35
2023-04-15T13:47:44.227Z,3.13
2023-04-15T13:50:47.033Z,3.13
2023-04-15T13:53:50.141Z,3.50
2023-04-15T13:56:52.568Z,3.83
2023-04-15T13:59:55.663Z,4.25
2023-04-15T14:02:58.461Z,3.78
2023-04-15T14:06:01.217Z,4.25
2023-04-15T14:09:04.304Z,4.30
2023-04-15T14:12:06.946Z,3.75
2023-04-15T14:15:09.933Z,3.95
2023-04-15T14:18:12.541Z,4.03
2023-04-15T14:21:15.068Z,3.42
2023-04-15T14:24:17.931Z,3.20
2023-04-15T14:27:20.738Z,2.90
2023-04-15T14:30:23.163Z,2.70
2023-04-15T14:33:26.459Z,2.50
2023-04-15T14:36:29.586Z,2.65
2023-04-15T14:39:33.483Z,3.58
2023-04-15T14:42:36.800Z,2.53
2023-04-15T14:45:42.170Z,1.98
2023-04-15T14:48:46.960Z,1.90
2023-04-15T14:51:49.562Z,1.48
2023-04-15T14:54:52.367Z,1.08
2023-04-15T14:57:55.064Z,1.05
2023-04-15T15:00:58.527Z,1.20
2023-04-15T15:04:01.398Z,1.10
2023-04-15T15:07:04.233Z,1.08
2023-04-15T15:10:07.279Z,1.20
2023-04-15T15:13:10.774Z,1.20
2023-04-15T15:16:14.649Z,1.20
2023-04-15T15:19:17.222Z,0.80
2023-04-15T15:22:21.338Z,1.20
2023-04-15T15:25:23.933Z,1.30
2023-04-15T15:28:27.364Z,0.93
2023-04-15T15:31:29.910Z,1.30
2023-04-15T15:34:32.473Z,1.40
2023-04-15T15:37:35.701Z,1.20
2023-04-15T15:46:42.873Z,1.20
2023-04-15T15:49:46.612Z,1.30
2023-04-15T15:52:50.161Z,1.55
2023-04-15T15:55:53.987Z,2.40
2023-04-15T15:58:56.710Z,2.15
2023-04-15T16:02:00.405Z,2.03
2023-04-15T16:05:03.156Z,2.90
2023-04-15T16:08:06.248Z,2.10
2023-04-15T16:11:08.774Z,2.35
2023-04-15T16:14:11.709Z,2.40
2023-04-15T16:17:14.190Z,2.20
2023-04-15T16:20:16.924Z,2.08
2023-04-15T16:23:20.279Z,2.17
2023-04-15T16:26:23.474Z,2.33
2023-04-15T16:29:26.306Z,2.10
2023-04-15T16:32:28.868Z,2.20
2023-04-15T16:35:34.475Z,2.45
2023-04-15T16:38:37.306Z,2.03
2023-04-15T16:41:39.862Z,1.98
2023-04-15T16:44:42.374Z,2.17
2023-04-15T16:47:44.990Z,2.08
2023-04-15T16:50:48.040Z,2.20
2023-04-15T16:53:50.892Z,1.92
2023-04-15T16:56:53.460Z,1.92
2023-04-15T16:59:56.277Z,1.98
2023-04-15T17:03:00.335Z,2.15
2023-04-15T17:06:02.966Z,2.13
2023-04-15T17:09:06.695Z,2.03
2023-04-15T17:12:09.607Z,2.53
2023-04-15T17:15:12.328Z,2.22
2023-04-15T17:18:14.977Z,3.80
2023-04-15T17:21:17.984Z,3.00
2023-04-15T17:24:20.560Z,2.80
2023-04-15T17:27:24.814Z,2.75
2023-04-15T17:30:27.710Z,3.00
2023-04-15T17:33:56.295Z,2.33
2023-04-15T17:36:53.817Z,2.40
2023-04-15T17:39:57.248Z,2.30
2023-04-15T17:43:00.217Z,2.53
2023-04-15T17:46:03.253Z,2.75
2023-04-15T17:49:06.839Z,2.03
2023-04-15T17:52:10.001Z,2.85
2023-04-15T17:55:13.032Z,2.20
2023-04-15T17:58:15.606Z,2.40
2023-04-15T18:01:18.197Z,2.53
2023-04-15T18:04:23.243Z,2.35
2023-04-15T18:07:27.676Z,3.53
2023-04-15T18:10:30.302Z,3.60
2023-04-15T18:13:32.965Z,3.38
2023-04-15T18:16:35.752Z,6.05
2023-04-15T18:19:38.559Z,7.82
2023-04-15T18:22:41.428Z,7.18
2023-04-15T18:25:45.285Z,8.98
2023-04-15T18:28:47.750Z,7.93
2023-04-15T18:34:55.633Z,7.05
2023-04-15T18:38:01.194Z,6.95
2023-04-15T18:41:05.508Z,6.72
2023-04-15T18:44:08.173Z,6.80
2023-04-15T18:47:10.682Z,6.85
2023-04-15T18:50:13.588Z,6.47
2023-04-15T18:53:16.896Z,7.00
2023-04-15T18:59:29.686Z,6.15
2023-04-15T19:02:33.258Z,5.60
2023-04-15T19:05:36.445Z,5.43
2023-04-15T19:08:39.232Z,5.75
2023-04-15T19:11:43.796Z,4.95
2023-04-15T19:14:46.815Z,5.93
2023-04-15T19:17:49.525Z,5.47
2023-04-15T19:20:52.921Z,6.47
2023-04-15T19:23:56.606Z,5.50
2023-04-15T19:26:59.333Z,5.28
2023-04-15T19:30:03.528Z,5.90
2023-04-15T19:33:06.269Z,6.40
2023-04-15T19:36:08.766Z,5.88
2023-04-15T19:39:11.802Z,6.22
2023-04-15T19:42:14.612Z,5.93
2023-04-15T19:45:17.234Z,6.10
2023-04-15T19:48:20.436Z,6.20
2023-04-15T19:51:23.986Z,6.57
2023-04-15T19:54:27.117Z,6.47
2023-04-15T19:57:29.764Z,7.07
2023-04-15T20:00:32.589Z,6.70
2023-04-15T20:03:35.559Z,8.25
2023-04-15T20:06:38.208Z,7.18
2023-04-15T20:09:43.978Z,7.47
2023-04-15T20:12:52.245Z,7.72
2023-04-15T20:15:55.851Z,8.52
2023-04-15T20:19:08.595Z,8.15
2023-04-15T20:22:11.054Z,7.55
2023-04-15T20:25:13.712Z,8.07
2023-04-15T20:28:18.184Z,7.85
2023-04-15T20:31:21.870Z,7.63
2023-04-15T20:34:24.469Z,9.40
2023-04-15T20:37:27.011Z,9.18
2023-04-15T20:40:29.555Z,11.57
2023-04-15T20:43:32.258Z,11.27
2023-04-15T20:46:34.836Z,11.60
2023-04-15T20:49:38.130Z,12.07
2023-04-15T20:55:46.000Z,13.07
2023-04-15T20:58:48.500Z,13.15
2023-04-15T21:01:51.731Z,13.88
2023-04-15T21:04:54.278Z,13.35
2023-04-15T21:07:57.006Z,13.45
2023-04-15T21:10:59.662Z,13.43
2023-04-15T21:14:02.435Z,14.93
2023-04-15T21:17:10.797Z,14.27
2023-04-15T21:20:14.414Z,13.35
2023-04-15T21:23:16.864Z,12.27
2023-04-15T21:26:19.277Z,12.15
2023-04-15T21:29:22.268Z,13.27
2023-04-15T21:32:25.667Z,11.60
2023-04-15T21:35:28.977Z,11.23
2023-04-15T21:41:33.779Z,8.98
2023-04-15T21:44:36.250Z,11.13
2023-04-15T21:48:01.249Z,10.68
2023-04-15T21:51:01.932Z,10.30
2023-04-15T21:54:05.360Z,10.77
2023-04-15T21:57:07.934Z,10.27
2023-04-15T22:00:12.024Z,9.95
2023-04-15T22:03:15.162Z,9.80
2023-04-15T22:06:18.028Z,9.50
2023-04-15T22:09:20.606Z,9.50
2023-04-15T22:12:23.711Z,10.48
2023-04-15T22:15:26.230Z,9.77
2023-04-15T22:18:28.762Z,9.90
2023-04-15T22:21:31.982Z,9.60
2023-04-15T22:24:39.841Z,10.75
2023-04-15T22:27:43.684Z,9.48
2023-04-15T22:30:46.587Z,9.23
2023-04-15T22:33:49.513Z,9.27
2023-04-15T22:36:52.301Z,10.23
2023-04-15T22:39:54.692Z,10.52
2023-04-15T22:42:57.159Z,10.13
2023-04-15T22:46:00.925Z,10.15
2023-04-15T22:49:06.289Z,11.52
2023-04-15T22:52:14.428Z,11.93
2023-04-15T22:55:22.736Z,10.52
2023-04-15T22:58:25.238Z,11.60
2023-04-15T23:01:28.001Z,11.32
2023-04-15T23:04:30.883Z,11.18
2023-04-15T23:07:33.423Z,10.90
2023-04-15T23:10:36.153Z,10.57
2023-04-15T23:13:38.936Z,10.75
2023-04-15T23:16:41.592Z,11.05
2023-04-15T23:19:45.274Z,11.98
2023-04-15T23:22:49.102Z,11.05
2023-04-15T23:25:51.814Z,10.18
2023-04-15T23:28:54.390Z,11.15
2023-04-15T23:31:57.233Z,10.88
2023-04-15T23:35:00.133Z,10.63
2023-04-15T23:38:02.764Z,10.90
2023-04-15T23:41:05.355Z,10.65
2023-04-15T23:44:09.658Z,12.57
2023-04-15T23:47:12.286Z,9.63
2023-04-15T23:50:14.783Z,10.55
2023-04-15T23:53:17.660Z,10.65
2023-04-15T23:56:20.967Z,9.98
